map of NLK home
NLK - Airport
Location
City:  Norfolk Island, Norfolk Island
ICAO:YSNF
IATA:NLK

Details
Type:Airport (Aerodrome, Airfield)
Use:Public/Civil, International (customs port of entry)
Latitude:2902'30"S (-29.041624)
Longitude:16756'19"E (167.938742)
Datum:WGS 1984
Elevation:371 ft (113 m)
Variation:15.01E (WMM2015 magnetic declination)
0.04 annual change
Runways:2
Longest:6398 × 150 ft (1950 × 45.5 m), paved

Time
Time Zone:UTC+11:30
Local Time:

Weather
METAR:YSNF 162200Z 16012KT 9999 FEW036 23/14 Q1016
TAF:YSNF 161713Z 1618/1718 16005KT 9999 SCT025
FM170000 17012KT 9999 SCT030
FM171200 14007KT 9999 SCT020 BKN030

Related Locations
Nearby:
Farthest:TTA: 12370 mi / 19908 km
Tan Tan [Tan Tan Airport (Plage Blanche Airport)], MA

Find:

   beyond  
but within

Other Information
Maps:
NOTAMs:
Links:
Sources:

  
  • flag of Norfolk Island
  

Sectional Chart

Flight Planning
at skyvector.com

Satellite Image

Google Maps Satellite view

 

Copyright © 2004-2019 Karl L. Swartz. All rights reserved.
The Great Circle Mapper name and logo are trademarks of the Great Circle Mapper.
All other trademarks mentioned herein belong to their respective owners.
Please see credits for attibutions and further copyright information.

  Follow gcmap on Facebook Follow gcmap on Twitter Follow gcmap on Google+ GCmap on LinkedIn

hCard Microformat

Geo Microformat